createdAt,value
2018-12-20T01:04:46.434Z,8.13
2018-12-20T01:09:49.792Z,8.50
2018-12-20T01:14:53.229Z,8.97
2018-12-20T01:19:56.585Z,6.63
2018-12-20T01:24:59.877Z,7.63
2018-12-20T01:30:03.355Z,6.87
2018-12-20T02:32:09.587Z,4.67
2018-12-20T02:37:12.972Z,5.13
2018-12-20T02:42:16.398Z,4.80
2018-12-20T02:47:19.790Z,5.27
2018-12-20T02:52:23.273Z,3.53
2018-12-20T02:57:27.219Z,3.60
2018-12-20T04:05:45.898Z,3.10
2018-12-20T04:10:49.383Z,2.50
2018-12-20T04:15:52.601Z,2.27
2018-12-20T04:20:55.974Z,1.80
2018-12-20T04:25:59.464Z,2.47
2018-12-20T05:34:24.940Z,2.10
2018-12-20T05:39:29.109Z,3.17
2018-12-20T05:44:33.199Z,2.40
2018-12-20T05:49:36.431Z,3.30
2018-12-20T05:54:39.829Z,2.77
2018-12-20T05:59:43.132Z,2.23
2018-12-20T07:01:51.405Z,3.73
2018-12-20T07:06:54.746Z,4.50
2018-12-20T07:11:58.065Z,2.83
2018-12-20T07:17:01.379Z,3.90
2018-12-20T07:22:04.728Z,3.57
2018-12-20T07:27:08.824Z,2.20
2018-12-20T08:35:22.069Z,2.43
2018-12-20T08:40:25.488Z,3.23
2018-12-20T08:45:28.941Z,2.13
2018-12-20T08:50:32.331Z,2.33
2018-12-20T08:55:35.704Z,3.60
2018-12-20T10:04:03.969Z,1.57
2018-12-20T10:09:07.336Z,2.03
2018-12-20T10:14:10.682Z,1.60
2018-12-20T10:19:14.002Z,2.03
2018-12-20T10:24:17.326Z,1.57
2018-12-20T10:29:20.657Z,2.03
2018-12-20T11:31:28.422Z,0.77
2018-12-20T11:36:32.543Z,1.73
2018-12-20T11:41:35.869Z,0.80
2018-12-20T11:46:39.961Z,1.07
2018-12-20T11:51:43.287Z,0.60
2018-12-20T11:56:46.611Z,1.53
2018-12-20T13:05:14.354Z,1.03
2018-12-20T13:10:17.641Z,0.73
2018-12-20T13:15:20.976Z,0.80
2018-12-20T13:20:25.089Z,2.20
2018-12-20T13:25:29.231Z,0.90
2018-12-20T14:33:58.923Z,1.33
2018-12-20T14:39:02.258Z,0.90
2018-12-20T14:44:05.585Z,1.03
2018-12-20T14:49:08.916Z,5.40
2018-12-20T14:54:12.250Z,2.90
2018-12-20T14:59:16.360Z,1.33
2018-12-20T16:01:25.056Z,1.80
2018-12-20T16:06:28.336Z,2.50
2018-12-20T16:11:31.677Z,0.83
2018-12-20T16:16:35.009Z,2.37
2018-12-20T16:21:38.352Z,1.37
2018-12-20T16:26:41.685Z,2.07
2018-12-20T16:31:45.026Z,1.00
2018-12-20T16:36:48.352Z,1.53
2018-12-20T16:41:51.685Z,2.23
2018-12-20T16:46:55.037Z,2.00
2018-12-20T16:51:58.379Z,0.97
2018-12-20T16:57:01.719Z,3.33
2018-12-20T17:02:05.057Z,1.80
2018-12-20T17:07:09.161Z,1.50
2018-12-20T17:12:12.502Z,2.07
2018-12-20T17:17:16.630Z,2.57
2018-12-20T17:22:24.943Z,2.10
2018-12-20T17:27:28.301Z,1.50
2018-12-20T17:32:31.657Z,2.40
2018-12-20T17:37:35.012Z,3.73
2018-12-20T17:42:38.369Z,1.47
2018-12-20T17:47:41.745Z,2.47
2018-12-20T17:52:45.089Z,3.37
2018-12-20T17:57:48.452Z,1.67
2018-12-20T18:02:51.810Z,2.70
2018-12-20T18:07:55.164Z,2.30
2018-12-20T18:12:59.293Z,0.83
2018-12-20T18:18:03.411Z,1.10
2018-12-20T18:23:06.748Z,1.00
2018-12-20T18:28:10.080Z,0.70
2018-12-20T18:33:13.441Z,0.80
2018-12-20T18:38:16.806Z,0.43
2018-12-20T18:43:25.131Z,0.97
2018-12-20T18:48:28.490Z,1.37
2018-12-20T18:53:31.844Z,1.33
2018-12-20T18:58:35.209Z,1.13
2018-12-20T19:03:39.020Z,1.20
2018-12-20T19:08:42.428Z,2.20
2018-12-20T19:13:45.785Z,1.87
2018-12-20T19:18:56.205Z,0.80
2018-12-20T19:24:03.354Z,1.40
2018-12-20T19:29:06.693Z,1.27
2018-12-20T19:34:10.025Z,1.30
2018-12-20T19:39:13.380Z,1.70
2018-12-20T19:44:21.305Z,1.87
2018-12-20T19:49:24.722Z,1.57
2018-12-20T19:54:28.065Z,1.90
2018-12-20T19:59:45.303Z,1.20
2018-12-20T20:04:55.618Z,1.70
2018-12-20T20:09:59.748Z,1.57
2018-12-20T20:15:03.865Z,1.10
2018-12-20T20:20:18.417Z,1.50
2018-12-20T20:25:21.762Z,1.30
2018-12-20T20:30:25.868Z,2.23
2018-12-20T20:35:29.237Z,1.70
2018-12-20T20:40:32.583Z,1.40
2018-12-20T20:45:35.921Z,1.90
2018-12-20T20:50:40.073Z,2.43
2018-12-20T20:55:43.417Z,2.00
2018-12-20T21:00:46.761Z,2.47
2018-12-20T21:05:50.114Z,2.63
2018-12-20T21:10:53.474Z,2.33
2018-12-20T21:15:56.812Z,2.03
2018-12-20T21:21:00.962Z,3.47
2018-12-20T21:26:04.321Z,4.10
2018-12-20T21:31:10.928Z,3.60
2018-12-20T21:36:15.191Z,2.97
2018-12-20T21:41:18.557Z,2.00
2018-12-20T21:46:21.919Z,2.60
2018-12-20T21:51:25.347Z,1.77
2018-12-20T21:56:29.551Z,3.57
2018-12-20T22:01:38.684Z,1.23
2018-12-20T22:06:43.107Z,4.70
2018-12-20T22:11:47.260Z,2.13
2018-12-20T22:16:50.613Z,3.90
2018-12-20T22:21:53.962Z,2.33
2018-12-20T22:26:57.308Z,2.30
2018-12-20T22:32:00.694Z,2.27
2018-12-20T22:37:04.059Z,1.40
2018-12-20T22:42:07.425Z,2.13
2018-12-20T22:47:10.784Z,2.33
2018-12-20T22:52:14.118Z,1.97
2018-12-20T22:57:18.243Z,2.77
2018-12-20T23:34:03.172Z,1.50
2018-12-20T23:39:06.539Z,1.53
2018-12-20T23:44:09.890Z,1.80
2018-12-20T23:49:13.227Z,2.07
2018-12-20T23:54:17.328Z,2.33
2018-12-20T23:59:20.676Z,1.70
